createdAt,value
2019-04-16T00:00:56.783Z,598.6
2019-04-16T00:01:59.304Z,598.6
2019-04-16T00:03:01.509Z,598.9
2019-04-16T00:04:03.935Z,598.6
2019-04-16T00:05:06.355Z,598.4
2019-04-16T00:06:08.508Z,598.4
2019-04-16T00:07:10.936Z,598.4
2019-04-16T00:09:18.333Z,598.6
2019-04-16T00:10:20.476Z,598.6
2019-04-16T00:11:22.651Z,598.8
2019-04-16T00:12:24.510Z,598.4
2019-04-16T00:13:26.953Z,598.7
2019-04-16T00:14:29.389Z,598.8
2019-04-16T00:15:31.810Z,598.8
2019-04-16T00:16:33.944Z,598.5
2019-04-16T00:17:36.094Z,599
2019-04-16T00:18:38.242Z,599
2019-04-16T00:19:40.124Z,599.1
2019-04-16T00:20:42.562Z,599.4
2019-04-16T00:21:44.722Z,599.2
2019-04-16T00:22:47.202Z,599.5
2019-04-16T00:23:49.634Z,599.6
2019-04-16T00:24:51.774Z,599.5
2019-04-16T00:28:04.227Z,599.1
2019-04-16T00:29:06.515Z,599.3
2019-04-16T00:30:08.932Z,599.5
2019-04-16T00:31:11.353Z,599.6
2019-04-16T00:32:13.783Z,599.6
2019-04-16T00:33:15.949Z,600
2019-04-16T00:34:18.090Z,599.6
2019-04-16T00:35:20.245Z,600.3
2019-04-16T00:36:22.662Z,600
2019-04-16T00:37:25.097Z,599.9
2019-04-16T00:39:33.455Z,600
2019-04-16T00:40:35.883Z,600
2019-04-16T00:41:37.753Z,599.7
2019-04-16T00:42:40.184Z,600.2
2019-04-16T00:44:47.585Z,600.6
2019-04-16T00:45:50.002Z,600.6
2019-04-16T00:46:52.137Z,600.5
2019-04-16T00:47:54.554Z,600.6
2019-04-16T00:48:56.732Z,600.6
2019-04-16T00:50:01.435Z,601.1
2019-04-16T00:51:03.619Z,600.8
2019-04-16T00:53:11.184Z,601.2
2019-04-16T00:54:13.602Z,600.5
2019-04-16T00:55:16.701Z,601.2
2019-04-16T00:56:19.119Z,601
2019-04-16T00:57:21.542Z,601.5
2019-04-16T00:58:23.712Z,601.1
2019-04-16T00:59:26.616Z,601.3
2019-04-16T01:01:33.748Z,601.1
2019-04-16T01:02:36.180Z,600.2
2019-04-16T01:03:38.608Z,600.8
2019-04-16T01:04:41.033Z,601.1
2019-04-16T01:05:43.460Z,600.9
2019-04-16T01:06:45.593Z,600.3
2019-04-16T01:07:47.466Z,600
2019-04-16T01:09:54.864Z,600.3
2019-04-16T01:10:57.042Z,600
2019-04-16T01:11:59.171Z,600.2
2019-04-16T01:13:01.384Z,600.2
2019-04-16T01:14:03.513Z,599.9
2019-04-16T01:15:05.937Z,600.1
2019-04-16T01:16:08.523Z,600.3
2019-04-16T01:17:10.744Z,600
2019-04-16T01:18:13.163Z,600.1
2019-04-16T01:19:15.294Z,600.1
2019-04-16T01:20:17.424Z,599.6
2019-04-16T01:21:19.843Z,599.5
2019-04-16T01:22:22.269Z,599.7
2019-04-16T01:23:24.683Z,599.8
2019-04-16T01:24:27.112Z,599.7
2019-04-16T01:25:29.531Z,599.8
2019-04-16T01:26:31.952Z,599.9
2019-04-16T01:27:34.110Z,599.9
2019-04-16T01:28:36.254Z,599.9
2019-04-16T01:29:38.679Z,599.9
2019-04-16T01:30:40.808Z,600
2019-04-16T01:31:43.231Z,599.5
2019-04-16T01:32:45.376Z,599.9
2019-04-16T01:33:49.166Z,599.7
2019-04-16T01:34:51.594Z,599.5
2019-04-16T01:35:54.410Z,599.8
2019-04-16T01:36:56.943Z,600
2019-04-16T01:37:59.570Z,600.2
2019-04-16T01:40:07.112Z,599.8
2019-04-16T01:41:09.641Z,599.9
2019-04-16T01:42:12.139Z,599.7
2019-04-16T01:43:14.563Z,599.5
2019-04-16T01:44:16.695Z,600
2019-04-16T01:45:18.844Z,599.9
2019-04-16T01:46:21.269Z,599.8
2019-04-16T01:47:23.683Z,599.9
2019-04-16T01:48:26.101Z,600
2019-04-16T01:49:28.517Z,600.1
2019-04-16T01:50:30.937Z,600.2
2019-04-16T01:51:33.348Z,599.5
2019-04-16T01:52:35.773Z,599.6
2019-04-16T01:53:38.195Z,599.3
2019-04-16T01:54:40.612Z,599.9
2019-04-16T01:55:44.186Z,599.8
2019-04-16T01:56:46.611Z,600
2019-04-16T01:57:48.762Z,599.7
2019-04-16T01:58:51.173Z,599.9
2019-04-16T01:59:53.321Z,599.7
2019-04-16T02:00:55.453Z,600.2
2019-04-16T02:01:57.599Z,600.2
2019-04-16T02:03:00.021Z,600.1
2019-04-16T02:04:02.170Z,600.1
2019-04-16T02:05:04.322Z,600.2
2019-04-16T02:06:06.451Z,600.5
2019-04-16T02:07:08.625Z,600
2019-04-16T02:08:10.771Z,600.1
2019-04-16T02:10:17.364Z,600.3
2019-04-16T02:11:19.789Z,600.6
2019-04-16T02:12:22.213Z,600.5
2019-04-16T02:13:24.633Z,600.7
2019-04-16T02:14:26.789Z,600.8
2019-04-16T02:15:28.383Z,601.5
2019-04-16T02:16:30.531Z,601
2019-04-16T02:17:32.963Z,600.9
2019-04-16T02:18:35.384Z,601.1
2019-04-16T02:19:37.548Z,601.5
2019-04-16T02:20:41.213Z,600.9
2019-04-16T02:21:43.521Z,601
2019-04-16T02:22:47.023Z,601.2
2019-04-16T02:23:49.709Z,601.3
2019-04-16T02:24:51.880Z,601.3
2019-04-16T02:25:54.283Z,600.6
2019-04-16T02:26:56.863Z,601.3
2019-04-16T02:27:59.759Z,600.9
2019-04-16T02:29:02.250Z,601
2019-04-16T02:32:14.713Z,601.2
2019-04-16T02:33:17.134Z,601.5
2019-04-16T02:34:19.575Z,601
2019-04-16T02:35:21.993Z,601.1
2019-04-16T02:36:24.405Z,600.7
2019-04-16T02:37:26.830Z,600.4
2019-04-16T02:38:29.253Z,600.2
2019-04-16T02:40:36.663Z,599.7
2019-04-16T02:41:39.081Z,599.5
2019-04-16T02:42:41.511Z,599.4
2019-04-16T02:43:43.920Z,599.8
2019-04-16T02:46:57.009Z,599.2
2019-04-16T02:47:59.423Z,598.8
2019-04-16T02:49:03.129Z,598.8
2019-04-16T02:50:05.634Z,598.4
2019-04-16T02:53:24.101Z,598.7
2019-04-16T02:54:32.104Z,598.6
2019-04-16T02:55:31.910Z,598.7
2019-04-16T02:56:34.329Z,598.8
2019-04-16T02:57:36.764Z,598.6
2019-04-16T02:58:39.190Z,598.9
2019-04-16T03:02:56.541Z,598.7
2019-04-16T03:03:58.957Z,598.6
2019-04-16T03:05:01.539Z,598.7
2019-04-16T03:06:04.151Z,598.5
2019-04-16T03:07:06.710Z,598.4
2019-04-16T03:08:09.142Z,598.4
2019-04-16T03:09:12.080Z,597.9
2019-04-16T03:10:15.820Z,598
2019-04-16T03:11:19.642Z,598
2019-04-16T03:12:23.477Z,598.4
2019-04-16T03:13:25.997Z,598.4
2019-04-16T03:16:40.504Z,598.3
2019-04-16T03:17:45.202Z,597.9
2019-04-16T03:19:53.858Z,598.3
2019-04-16T03:20:58.187Z,598.2
2019-04-16T03:23:08.543Z,598.2
2019-04-16T03:24:11.916Z,598.3
2019-04-16T03:25:15.758Z,599
2019-04-16T03:26:20.030Z,598.6
2019-04-16T03:27:24.525Z,598.9
2019-04-16T03:29:33.049Z,599
2019-04-16T03:31:40.193Z,599.2
2019-04-16T03:32:42.323Z,599.6
2019-04-16T03:41:19.051Z,599.8
2019-04-16T03:42:20.947Z,599.7
2019-04-16T03:43:23.367Z,600.1
2019-04-16T03:44:25.795Z,600.2
2019-04-16T03:45:28.212Z,599.7
2019-04-16T03:46:30.651Z,599.9
2019-04-16T03:47:33.069Z,600.3
2019-04-16T03:48:35.220Z,600.3
2019-04-16T03:49:37.363Z,600.3
2019-04-16T03:50:39.780Z,600.7
2019-04-16T03:51:41.909Z,600.8
2019-04-16T03:56:00.617Z,599.9
2019-04-16T03:57:04.589Z,599.8
2019-04-16T03:58:09.317Z,599.9
2019-04-16T03:59:14.213Z,599.9
2019-04-16T04:00:16.512Z,599.6
2019-04-16T04:01:18.960Z,599.4
2019-04-16T04:04:31.964Z,599.4
2019-04-16T04:11:02.313Z,599.6
2019-04-16T04:12:04.463Z,599.6
2019-04-16T04:13:07.033Z,599.5
2019-04-16T04:14:09.691Z,599.5
2019-04-16T04:15:12.083Z,599.4
2019-04-16T04:16:14.694Z,599
2019-04-16T04:17:17.338Z,599.1
2019-04-16T04:18:19.831Z,598.9
2019-04-16T04:19:21.968Z,599.3
2019-04-16T04:20:24.386Z,598.9
2019-04-16T04:21:26.799Z,599.2
2019-04-16T04:22:29.239Z,599.4
2019-04-16T04:23:31.647Z,598.8
2019-04-16T04:24:34.183Z,598.8
2019-04-16T04:32:06.375Z,598.8
2019-04-16T04:39:43.576Z,598.2
2019-04-16T04:44:07.093Z,597.9
2019-04-16T04:45:12.311Z,597.8
2019-04-16T04:46:17.169Z,597.6
2019-04-16T04:48:26.103Z,597
2019-04-16T04:55:59.283Z,596.4
2019-04-16T04:57:02.175Z,596.4
2019-04-16T04:58:05.419Z,596.2
2019-04-16T04:59:08.062Z,595.9
2019-04-16T05:00:11.710Z,595.6
2019-04-16T05:01:15.875Z,595.6
2019-04-16T05:02:18.030Z,595.3
2019-04-16T05:03:20.697Z,595.2
2019-04-16T05:04:23.364Z,595.1
2019-04-16T05:05:27.655Z,595.4
2019-04-16T05:06:30.074Z,595.4
2019-04-16T05:07:32.506Z,595.4
2019-04-16T05:08:34.935Z,595.8
2019-04-16T05:09:38.475Z,595.6
2019-04-16T05:13:58.582Z,595.6
2019-04-16T05:16:09.025Z,596.1
2019-04-16T05:17:11.484Z,596
2019-04-16T05:18:14.214Z,595.8
2019-04-16T05:19:17.632Z,595.8
2019-04-16T05:20:20.130Z,595.5
2019-04-16T05:21:22.695Z,595.4
2019-04-16T05:22:24.839Z,595.1
2019-04-16T05:23:27.538Z,595.2
2019-04-16T05:24:31.435Z,595.2
2019-04-16T05:25:36.114Z,595.1
2019-04-16T05:26:39.293Z,595.1
2019-04-16T05:27:43.341Z,595.2
2019-04-16T05:28:47.475Z,595.7
2019-04-16T05:29:51.149Z,595.7
2019-04-16T05:30:54.689Z,595.5
2019-04-16T05:34:08.297Z,595.6
2019-04-16T05:35:12.669Z,595.8
2019-04-16T05:36:16.976Z,595.7
2019-04-16T05:38:26.239Z,595.9
2019-04-16T05:39:30.322Z,595.5
2019-04-16T05:41:37.542Z,595.6
2019-04-16T05:42:39.968Z,595.4
2019-04-16T05:43:41.856Z,595.3
2019-04-16T05:44:44.018Z,594.9
2019-04-16T05:45:46.445Z,594.9
2019-04-16T05:46:48.719Z,595.3
2019-04-16T05:47:51.582Z,594.8
2019-04-16T05:48:55.857Z,594.9
2019-04-16T05:50:00.555Z,595
2019-04-16T05:51:02.707Z,594.7
2019-04-16T05:52:06.061Z,595.1
2019-04-16T05:54:15.117Z,594.8
2019-04-16T05:57:29.249Z,594.9
2019-04-16T05:58:32.794Z,594.8
2019-04-16T05:59:36.336Z,595.1
2019-04-16T06:04:58.683Z,594.4
2019-04-16T06:06:01.867Z,594.6
2019-04-16T06:08:11.789Z,594.7
2019-04-16T06:09:15.733Z,594.4
2019-04-16T06:12:28.185Z,594.1
2019-04-16T06:13:30.342Z,594.2
2019-04-16T06:14:32.768Z,594.3
2019-04-16T06:16:39.890Z,594.4
2019-04-16T06:17:42.040Z,594.8
2019-04-16T06:18:44.457Z,594.6
2019-04-16T06:21:59.080Z,594.7
2019-04-16T06:23:03.378Z,594.9
2019-04-16T06:24:05.884Z,594.8
2019-04-16T06:27:18.291Z,594.7
2019-04-16T06:28:19.976Z,594.1
2019-04-16T06:29:22.404Z,594.5
2019-04-16T06:30:24.836Z,593.9
2019-04-16T06:31:27.252Z,594
2019-04-16T06:32:30.425Z,594.5
2019-04-16T06:33:32.849Z,594.6
2019-04-16T06:34:35.279Z,594.6
2019-04-16T06:36:42.683Z,594.4
2019-04-16T06:38:49.815Z,593.9
2019-04-16T06:39:52.240Z,594.2
2019-04-16T06:40:54.397Z,594
2019-04-16T06:41:56.830Z,593.7
2019-04-16T06:42:59.256Z,594
2019-04-16T06:45:07.849Z,593.8
2019-04-16T06:46:11.324Z,594.1
2019-04-16T06:47:13.551Z,594.1
2019-04-16T06:48:16.222Z,593.6
2019-04-16T06:49:20.434Z,593.7
2019-04-16T06:51:27.839Z,593.7
2019-04-16T06:52:30.313Z,594.1
2019-04-16T06:53:32.886Z,594.1
2019-04-16T06:54:35.854Z,594.3
2019-04-16T06:55:37.993Z,594
2019-04-16T06:57:45.585Z,594.2
2019-04-16T06:59:52.992Z,593.5
2019-04-16T07:00:55.431Z,593.8
2019-04-16T07:01:57.925Z,593.7
2019-04-16T07:05:10.029Z,593.3
2019-04-16T07:06:12.171Z,593.8
2019-04-16T07:07:14.749Z,593.5
2019-04-16T07:11:32.351Z,593.9
2019-04-16T07:15:49.777Z,593.9
2019-04-16T07:16:52.201Z,594.2
2019-04-16T07:17:54.651Z,593.8
2019-04-16T07:18:56.808Z,593.6
2019-04-16T07:19:58.938Z,593.7
2019-04-16T07:21:01.370Z,594.2
2019-04-16T07:22:03.790Z,594
2019-04-16T07:23:05.959Z,594.2
2019-04-16T07:24:08.687Z,594.4
2019-04-16T07:25:11.055Z,594.6
2019-04-16T07:31:39.601Z,594.3
2019-04-16T07:32:41.752Z,594.3
2019-04-16T07:33:43.994Z,594.4
2019-04-16T07:34:46.153Z,594.4
2019-04-16T07:35:48.620Z,594.3
2019-04-16T07:36:51.411Z,594.6
2019-04-16T07:37:54.134Z,594.1
2019-04-16T07:38:56.413Z,594.5
2019-04-16T07:39:58.567Z,594.1
2019-04-16T07:41:00.999Z,593.7
2019-04-16T07:43:08.439Z,593.8
2019-04-16T07:44:13.076Z,593.9
2019-04-16T07:45:15.496Z,593.6
2019-04-16T07:46:17.650Z,593.8
2019-04-16T07:48:25.546Z,593.8
2019-04-16T07:49:29.034Z,593.9
2019-04-16T07:51:38.551Z,593.6
2019-04-16T07:54:50.933Z,593.3
2019-04-16T07:55:53.364Z,593.5
2019-04-16T07:56:55.578Z,593.9
2019-04-16T07:57:58.010Z,593.4
2019-04-16T08:05:32.655Z,593.2
2019-04-16T08:06:35.087Z,593.3
2019-04-16T08:07:37.503Z,593.2
2019-04-16T08:08:39.680Z,593.4
2019-04-16T08:09:41.554Z,593.4
2019-04-16T08:10:43.971Z,593.7
2019-04-16T08:11:46.400Z,593.7
2019-04-16T08:12:48.279Z,593.6
2019-04-16T08:13:50.722Z,593.4
2019-04-16T08:14:52.592Z,593.2
2019-04-16T08:16:59.995Z,593.3
2019-04-16T08:18:02.423Z,593.4
2019-04-16T08:19:04.943Z,592.9
2019-04-16T08:20:07.415Z,593.1
2019-04-16T08:23:22.197Z,592.7
2019-04-16T08:26:34.262Z,593
2019-04-16T08:27:36.391Z,592.7
2019-04-16T08:28:39.019Z,592.7
2019-04-16T08:29:41.525Z,592.8
2019-04-16T08:30:43.975Z,592.8
2019-04-16T08:31:46.830Z,593
2019-04-16T08:33:53.713Z,592.7
2019-04-16T08:34:56.146Z,592.7
2019-04-16T08:35:58.603Z,592.5
2019-04-16T08:37:01.187Z,592.6
2019-04-16T08:38:03.843Z,592.5
2019-04-16T08:46:42.898Z,592.3
2019-04-16T08:49:56.924Z,592.2
2019-04-16T08:51:03.995Z,592.6
2019-04-16T08:56:27.595Z,592.3
2019-04-16T09:09:26.868Z,592.2
2019-04-16T09:14:54.693Z,591.8
2019-04-16T09:15:56.074Z,592.2
2019-04-16T09:16:58.674Z,592.5
2019-04-16T09:18:01.325Z,592
2019-04-16T09:19:03.529Z,592.3
2019-04-16T09:20:08.414Z,592.2
2019-04-16T09:21:13.130Z,591.9
2019-04-16T09:24:26.441Z,592
2019-04-16T09:25:28.338Z,592.1
2019-04-16T09:26:30.773Z,591.5
2019-04-16T09:28:38.182Z,592.6
2019-04-16T09:29:41.941Z,592.6
2019-04-16T09:36:11.484Z,592.9
2019-04-16T09:37:13.631Z,592.6
2019-04-16T09:38:16.057Z,593.5
2019-04-16T09:40:24.071Z,593.4
2019-04-16T09:41:26.215Z,593
2019-04-16T09:42:28.355Z,593.4
2019-04-16T09:43:30.792Z,593.4
2019-04-16T09:45:40.342Z,593.8
2019-04-16T09:47:47.738Z,593.9
2019-04-16T09:48:52.035Z,593.9
2019-04-16T09:49:54.464Z,594.1
2019-04-16T09:50:56.892Z,594.4
2019-04-16T09:51:59.314Z,594.2
2019-04-16T09:53:03.893Z,594.5
2019-04-16T09:54:06.038Z,594.4
2019-04-16T09:55:08.464Z,594.5
2019-04-16T09:56:10.881Z,594.8
2019-04-16T09:57:13.477Z,594.7
2019-04-16T09:58:16.234Z,594.4
2019-04-16T09:59:19.039Z,594.4
2019-04-16T10:00:22.973Z,594.8
2019-04-16T10:01:25.600Z,594.8
2019-04-16T10:02:28.219Z,594.6
2019-04-16T10:03:30.927Z,594.6
2019-04-16T10:04:33.392Z,595.2
2019-04-16T10:05:35.844Z,594.9
2019-04-16T10:06:38.290Z,594.9
2019-04-16T10:07:42.700Z,595
2019-04-16T10:10:54.826Z,594.9
2019-04-16T10:11:59.297Z,595.2
2019-04-16T10:13:01.734Z,595.2
2019-04-16T10:14:04.227Z,595.6
2019-04-16T10:15:06.655Z,595.6
2019-04-16T10:16:09.184Z,595.8
2019-04-16T10:17:11.396Z,595.9
2019-04-16T10:18:13.964Z,595.9
2019-04-16T10:19:16.634Z,595.9
2019-04-16T10:20:18.823Z,596
2019-04-16T10:21:22.638Z,595.7
2019-04-16T10:22:25.103Z,596.3
2019-04-16T10:23:27.608Z,596.1
2019-04-16T10:24:30.040Z,596.1
2019-04-16T10:26:37.438Z,595.9
2019-04-16T10:27:39.930Z,596
2019-04-16T10:28:42.112Z,596.3
2019-04-16T10:29:44.534Z,596.3
2019-04-16T10:30:47.044Z,596.5
2019-04-16T10:31:49.527Z,596.1
2019-04-16T10:32:51.977Z,596.3
2019-04-16T10:33:54.452Z,595.9
2019-04-16T10:34:56.592Z,595.7
2019-04-16T10:37:05.025Z,595.8
2019-04-16T10:38:07.531Z,596.3
2019-04-16T10:39:09.982Z,596.7
2019-04-16T10:40:12.157Z,596.4
2019-04-16T10:41:14.802Z,596.5
2019-04-16T10:42:17.334Z,596.6
2019-04-16T10:43:19.995Z,596.4
2019-04-16T10:44:22.425Z,596.6
2019-04-16T10:45:24.618Z,596.8
2019-04-16T10:46:27.046Z,596.6
2019-04-16T10:47:29.453Z,596.6
2019-04-16T10:48:31.686Z,596.7
2019-04-16T10:49:34.096Z,596.9
2019-04-16T10:50:36.267Z,596.8
2019-04-16T10:51:38.440Z,597.1
2019-04-16T10:52:40.894Z,597.1
2019-04-16T10:53:43.415Z,597.1
2019-04-16T10:54:45.741Z,597.6
2019-04-16T10:55:48.205Z,597.9
2019-04-16T10:56:50.640Z,597.5
2019-04-16T10:57:53.421Z,598.1
2019-04-16T10:58:55.894Z,597.6
2019-04-16T10:59:58.360Z,597.7
2019-04-16T11:01:00.759Z,597.6
2019-04-16T11:02:03.196Z,597.7
2019-04-16T11:03:05.740Z,597.8
2019-04-16T11:04:10.090Z,598.2
2019-04-16T11:05:15.191Z,598.2
2019-04-16T11:06:19.186Z,598.4
2019-04-16T11:07:21.741Z,598.7
2019-04-16T11:08:24.189Z,598.3
2019-04-16T11:09:26.419Z,598.6
2019-04-16T11:10:28.895Z,598.4
2019-04-16T11:11:31.424Z,598.6
2019-04-16T11:12:33.850Z,598.7
2019-04-16T11:13:36.435Z,598.7
2019-04-16T11:14:39.045Z,598.4
2019-04-16T11:15:41.236Z,598.3
2019-04-16T11:16:43.413Z,598.2
2019-04-16T11:17:45.855Z,598.7
2019-04-16T11:18:48.392Z,598.4
2019-04-16T11:20:55.915Z,598.1
2019-04-16T11:24:09.814Z,598.4
2019-04-16T11:25:12.386Z,598.5
2019-04-16T11:26:14.822Z,598.5
2019-04-16T11:27:17.338Z,598.7
2019-04-16T11:28:19.768Z,598.8
2019-04-16T11:29:22.223Z,599
2019-04-16T11:30:24.727Z,598.9
2019-04-16T11:31:26.874Z,598.6
2019-04-16T11:32:29.365Z,598.9
2019-04-16T11:33:31.851Z,599
2019-04-16T11:34:34.279Z,599
2019-04-16T11:35:36.737Z,598.9
2019-04-16T11:36:38.902Z,599.2
2019-04-16T11:38:46.304Z,599.1
2019-04-16T11:39:48.752Z,598.5
2019-04-16T11:40:51.402Z,598.9
2019-04-16T11:41:53.823Z,599.3
2019-04-16T11:42:56.359Z,599
2019-04-16T11:45:05.693Z,599.5
2019-04-16T11:46:08.141Z,599.5
2019-04-16T11:47:10.815Z,599.7
2019-04-16T11:48:13.400Z,599.7
2019-04-16T11:49:16.341Z,599.1
2019-04-16T11:50:19.165Z,599.3
2019-04-16T11:51:21.644Z,599.3
2019-04-16T11:52:23.882Z,599.2
2019-04-16T11:53:26.358Z,599.6
2019-04-16T11:54:28.585Z,599.5
2019-04-16T11:55:31.046Z,599.6
2019-04-16T11:56:33.521Z,599.4
2019-04-16T11:57:35.844Z,599.3
2019-04-16T11:58:38.032Z,599.6
2019-04-16T11:59:40.391Z,599.8
2019-04-16T12:00:42.898Z,599.7
2019-04-16T12:01:45.205Z,599.5
2019-04-16T12:02:47.634Z,599.8
2019-04-16T12:03:50.094Z,599.8
2019-04-16T12:05:58.017Z,599.9
2019-04-16T12:07:00.159Z,599.7
2019-04-16T12:08:02.967Z,599.7
2019-04-16T12:09:05.439Z,599.5
2019-04-16T12:10:07.980Z,599.8
2019-04-16T12:11:10.942Z,599.5
2019-04-16T12:12:13.823Z,599.6
2019-04-16T12:13:16.340Z,599.6
2019-04-16T12:15:23.549Z,599.6
2019-04-16T12:16:27.096Z,599.7
2019-04-16T12:17:29.607Z,599.8
2019-04-16T12:18:34.064Z,599.7
2019-04-16T12:19:36.307Z,599.8
2019-04-16T12:20:38.507Z,600.3
2019-04-16T12:21:40.925Z,600
2019-04-16T12:22:43.475Z,600.1
2019-04-16T12:23:45.932Z,600.1
2019-04-16T12:24:48.448Z,599.8
2019-04-16T12:25:50.911Z,600.2
2019-04-16T12:26:53.176Z,600.5
2019-04-16T12:27:55.653Z,600.3
2019-04-16T12:28:58.168Z,600.1
2019-04-16T12:30:00.605Z,600.1
2019-04-16T12:31:03.720Z,599.9
2019-04-16T12:32:07.767Z,599.6
2019-04-16T12:34:17.849Z,599.6
2019-04-16T12:35:20.303Z,599.4
2019-04-16T12:36:22.608Z,599.7
2019-04-16T12:37:25.069Z,599.9
2019-04-16T12:38:27.591Z,599.8
2019-04-16T12:39:30.088Z,599.9
2019-04-16T12:40:32.288Z,600
2019-04-16T12:41:34.893Z,599.9
2019-04-16T12:43:42.316Z,599.7
2019-04-16T12:45:53.066Z,599.5
2019-04-16T12:46:56.568Z,599.6
2019-04-16T12:49:03.932Z,599.7
2019-04-16T12:50:06.709Z,599.8
2019-04-16T12:51:09.460Z,599.9
2019-04-16T12:53:17.377Z,600.7
2019-04-16T12:54:19.861Z,600.8
2019-04-16T12:56:27.293Z,601.5
2019-04-16T12:57:29.595Z,601.7
2019-04-16T12:58:31.992Z,601.6
2019-04-16T12:59:34.417Z,601.6
2019-04-16T13:00:36.553Z,601.8
2019-04-16T13:01:39.214Z,601.8
2019-04-16T13:04:54.330Z,601.9
2019-04-16T13:05:56.756Z,601.3
2019-04-16T13:06:59.174Z,601.3
2019-04-16T13:08:02.251Z,601.3
2019-04-16T13:09:04.723Z,601.3
2019-04-16T13:10:07.184Z,601.4
2019-04-16T13:11:10.977Z,601.1
2019-04-16T13:12:13.406Z,601.3
2019-04-16T13:13:15.835Z,601.7
2019-04-16T13:14:17.997Z,601
2019-04-16T13:15:20.419Z,601.3
2019-04-16T13:16:22.286Z,601.6
2019-04-16T13:17:24.708Z,601.9
2019-04-16T13:18:27.130Z,601.6
2019-04-16T13:19:29.547Z,601.7
2019-04-16T13:20:32.155Z,601.6
2019-04-16T13:21:34.584Z,601.5
2019-04-16T13:22:37.010Z,601.9
2019-04-16T13:23:39.433Z,601.5
2019-04-16T13:24:41.920Z,602.2
2019-04-16T13:25:44.083Z,602
2019-04-16T13:26:46.516Z,602.1
2019-04-16T13:31:05.283Z,602.3
2019-04-16T13:32:07.704Z,602.4
2019-04-16T13:33:10.508Z,602.3
2019-04-16T13:34:12.774Z,602
2019-04-16T13:35:15.295Z,602.1
2019-04-16T13:36:17.748Z,601.6
2019-04-16T13:37:20.172Z,602.1
2019-04-16T13:38:22.324Z,601.7
2019-04-16T13:39:24.746Z,602
2019-04-16T13:40:27.177Z,601.6
2019-04-16T13:41:29.613Z,602.1
2019-04-16T13:42:32.065Z,602
2019-04-16T13:45:44.162Z,602.4
2019-04-16T13:46:46.592Z,602.1
2019-04-16T13:47:54.374Z,602.1
2019-04-16T13:51:06.033Z,602
2019-04-16T13:52:08.642Z,602.3
2019-04-16T13:53:11.331Z,602.4
2019-04-16T13:54:13.914Z,602.3
2019-04-16T13:55:16.074Z,602.1
2019-04-16T13:56:20.248Z,602.1
2019-04-16T13:57:22.679Z,601.8
2019-04-16T13:58:24.824Z,601.9
2019-04-16T14:02:42.675Z,602.5
2019-04-16T14:03:45.119Z,602.3
2019-04-16T14:04:47.534Z,602.3
2019-04-16T14:05:49.965Z,602.5
2019-04-16T14:06:52.115Z,602.2
2019-04-16T14:07:54.262Z,602.3
2019-04-16T14:08:56.425Z,602.7
2019-04-16T14:09:59.173Z,602.3
2019-04-16T14:11:01.634Z,602.3
2019-04-16T14:12:03.838Z,602.5
2019-04-16T14:13:06.621Z,602.5
2019-04-16T14:14:10.254Z,602.6
2019-04-16T14:15:12.680Z,602.8
2019-04-16T14:16:15.467Z,602.5
2019-04-16T14:18:23.887Z,602.4
2019-04-16T14:19:26.042Z,602.3
2019-04-16T14:20:28.489Z,602.5
2019-04-16T14:21:30.628Z,602.3
2019-04-16T14:22:33.053Z,601.8
2019-04-16T14:23:35.481Z,602.3
2019-04-16T14:24:37.613Z,602.4
2019-04-16T14:25:40.046Z,602.3
2019-04-16T14:26:42.202Z,602.3
2019-04-16T14:27:44.625Z,602.1
2019-04-16T14:29:51.457Z,601.9
2019-04-16T14:30:53.870Z,601.5
2019-04-16T14:31:56.303Z,602.1
2019-04-16T14:32:59.079Z,602.3
2019-04-16T14:34:01.568Z,601.9
2019-04-16T14:35:03.750Z,601.9
2019-04-16T14:36:06.334Z,602
2019-04-16T14:37:08.831Z,601.9
2019-04-16T14:38:11.415Z,601.9
2019-04-16T14:39:13.578Z,602.1
2019-04-16T14:40:16.004Z,602
2019-04-16T14:41:18.159Z,602.1
2019-04-16T14:46:40.980Z,601.9
2019-04-16T14:47:42.548Z,601.9
2019-04-16T14:50:54.973Z,602.5
2019-04-16T14:53:02.459Z,602.2
2019-04-16T14:54:04.958Z,601.7
2019-04-16T14:55:07.433Z,601.8
2019-04-16T14:56:09.949Z,601.6
2019-04-16T14:57:13.376Z,601.5
2019-04-16T15:00:25.760Z,601.2
2019-04-16T15:01:28.189Z,601
2019-04-16T15:02:31.454Z,600.7
2019-04-16T15:03:33.600Z,600.9
2019-04-16T15:04:35.835Z,601.1
2019-04-16T15:05:38.264Z,601.2
2019-04-16T15:06:40.430Z,600.9
2019-04-16T15:08:47.919Z,601
2019-04-16T15:09:50.058Z,600.9
2019-04-16T15:10:52.482Z,600.6
2019-04-16T15:11:57.939Z,600.4
2019-04-16T15:13:01.798Z,600.7
2019-04-16T15:14:04.224Z,600.9
2019-04-16T15:17:17.494Z,601.1
2019-04-16T15:18:19.982Z,600.8
2019-04-16T15:19:22.424Z,600.9
2019-04-16T15:20:24.574Z,600.6
2019-04-16T15:21:27.000Z,600.9
2019-04-16T15:22:29.455Z,600.3
2019-04-16T15:23:31.368Z,600
2019-04-16T15:24:33.800Z,600.5
2019-04-16T15:25:35.969Z,600.5
2019-04-16T15:26:38.395Z,600.4
2019-04-16T15:27:40.840Z,600.1
2019-04-16T15:28:43.062Z,600.2
2019-04-16T15:29:45.494Z,599.8
2019-04-16T15:30:47.922Z,600.1
2019-04-16T15:31:50.074Z,599.9
2019-04-16T15:32:52.234Z,599.6
2019-04-16T15:33:54.384Z,599.5
2019-04-16T15:34:57.013Z,599.7
2019-04-16T15:35:59.603Z,599.7
2019-04-16T15:37:01.882Z,599.6
2019-04-16T15:38:03.890Z,599.4
2019-04-16T15:39:06.553Z,599.4
2019-04-16T15:40:10.677Z,599.5
2019-04-16T15:42:20.096Z,599.4
2019-04-16T15:43:22.318Z,599.4
2019-04-16T15:44:25.974Z,599.1
2019-04-16T15:47:38.094Z,599.2
2019-04-16T15:48:40.246Z,599.1
2019-04-16T15:49:42.747Z,599.1
2019-04-16T15:50:45.235Z,598.8
2019-04-16T15:52:52.640Z,599.2
2019-04-16T15:53:55.361Z,599.1
2019-04-16T15:54:57.826Z,598.8
2019-04-16T15:56:00.524Z,599.1
2019-04-16T15:57:03.130Z,599.1
2019-04-16T15:59:10.580Z,598.9
2019-04-16T16:00:12.919Z,599.2
2019-04-16T16:01:15.340Z,599.3
2019-04-16T16:02:17.492Z,599.2
2019-04-16T16:03:19.667Z,598.9
2019-04-16T16:05:26.811Z,599.1
2019-04-16T16:06:29.224Z,598.9
2019-04-16T16:07:31.096Z,599.2
2019-04-16T16:12:56.087Z,598.5
2019-04-16T16:17:14.135Z,598.5
2019-04-16T16:18:16.290Z,598.7
2019-04-16T16:19:18.706Z,598.6
2019-04-16T16:20:21.126Z,598.6
2019-04-16T16:21:23.546Z,598.4
2019-04-16T16:22:25.981Z,598.5
2019-04-16T16:26:44.414Z,598
2019-04-16T16:28:51.819Z,598.1
2019-04-16T16:29:54.344Z,598
2019-04-16T16:30:56.870Z,598.3
2019-04-16T16:31:59.420Z,597.8
2019-04-16T16:33:01.891Z,598
2019-04-16T16:34:07.929Z,598
2019-04-16T16:35:10.967Z,597.9
2019-04-16T16:36:13.395Z,598.1
2019-04-16T16:37:15.879Z,598
2019-04-16T16:39:23.193Z,597.9
2019-04-16T16:40:25.081Z,597.3
2019-04-16T16:41:27.514Z,597.6
2019-04-16T16:42:29.932Z,597.4
2019-04-16T16:43:32.081Z,597.6
2019-04-16T16:44:34.025Z,597.2
2019-04-16T16:45:36.433Z,597.4
2019-04-16T16:46:38.572Z,597.7
2019-04-16T16:47:41.536Z,597.3
2019-04-16T16:48:43.669Z,597.4
2019-04-16T16:49:45.818Z,597.5
2019-04-16T16:51:55.840Z,597.7
2019-04-16T16:52:58.336Z,597
2019-04-16T16:54:00.860Z,597.3
2019-04-16T16:55:03.283Z,597.1
2019-04-16T16:56:05.694Z,597.4
2019-04-16T16:58:12.553Z,597.3
2019-04-16T16:59:14.994Z,597.2
2019-04-16T17:00:17.142Z,597.2
2019-04-16T17:01:19.312Z,597.2
2019-04-16T17:02:21.164Z,597.1
2019-04-16T17:03:23.590Z,597.1
2019-04-16T17:04:26.147Z,596.9
2019-04-16T17:05:28.576Z,596.7
2019-04-16T17:06:30.455Z,596.3
2019-04-16T17:07:32.601Z,596.4
2019-04-16T17:08:35.036Z,596.4
2019-04-16T17:09:36.900Z,596.6
2019-04-16T17:11:46.003Z,596.1
2019-04-16T17:12:48.424Z,595.9
2019-04-16T17:13:50.855Z,596
2019-04-16T17:14:53.526Z,595.7
2019-04-16T17:15:56.765Z,595.9
2019-04-16T17:18:03.629Z,595.7
2019-04-16T17:19:06.204Z,595.5
2019-04-16T17:20:08.725Z,595.6
2019-04-16T17:21:11.146Z,595.5
2019-04-16T17:23:19.280Z,595.6
2019-04-16T17:24:21.720Z,595.4
2019-04-16T17:26:29.126Z,595.3
2019-04-16T17:27:31.009Z,595.2
2019-04-16T17:28:33.183Z,595.2
2019-04-16T17:29:35.613Z,595.2
2019-04-16T17:30:38.037Z,595.2
2019-04-16T17:31:40.699Z,595
2019-04-16T17:32:43.174Z,594.9
2019-04-16T17:33:45.603Z,595
2019-04-16T17:34:48.034Z,595
2019-04-16T17:35:50.470Z,594.5
2019-04-16T17:36:52.896Z,594.6
2019-04-16T17:37:55.833Z,594
2019-04-16T17:38:58.364Z,594.5
2019-04-16T17:40:00.806Z,594.4
2019-04-16T17:41:03.440Z,594.2
2019-04-16T17:42:07.323Z,594.1